createdAt,value
2022-12-04T00:01:44.110Z,26.67
2022-12-04T00:04:11.904Z,28.15
2022-12-04T00:06:39.681Z,28.02
2022-12-04T00:09:07.250Z,29.55
2022-12-04T00:11:36.065Z,25.20
2022-12-04T00:14:07.199Z,24.45
2022-12-04T00:16:35.428Z,25.95
2022-12-04T00:19:03.175Z,27.73
2022-12-04T00:21:31.870Z,27.80
2022-12-04T00:23:59.595Z,115.70
2022-12-04T00:26:28.363Z,53.47
2022-12-04T00:28:56.672Z,32.88
2022-12-04T00:31:25.749Z,24.60
2022-12-04T00:33:53.729Z,53.70
2022-12-04T00:36:22.622Z,31.83
2022-12-04T00:38:50.425Z,43.55
2022-12-04T00:41:20.174Z,29.17
2022-12-04T00:43:47.830Z,25.15
2022-12-04T00:46:15.858Z,27.50
2022-12-04T00:48:44.228Z,30.42
2022-12-04T00:51:13.249Z,24.58
2022-12-04T00:53:40.915Z,24.25
2022-12-04T00:56:09.734Z,23.20
2022-12-04T00:58:37.408Z,25.40
2022-12-04T01:01:09.500Z,28.92
2022-12-04T01:03:38.337Z,49.88
2022-12-04T01:06:06.378Z,27.63
2022-12-04T01:08:34.876Z,23.38
2022-12-04T01:11:06.107Z,24.33
2022-12-04T01:13:33.776Z,24.35
2022-12-04T01:16:01.548Z,23.20
2022-12-04T01:18:29.242Z,24.50
2022-12-04T01:20:56.841Z,23.90
2022-12-04T01:23:24.388Z,21.10
2022-12-04T01:25:52.881Z,22.02
2022-12-04T01:28:20.530Z,22.20
2022-12-04T01:31:20.727Z,26.15
2022-12-04T01:33:48.603Z,26.70
2022-12-04T01:36:19.127Z,27.88
2022-12-04T01:38:46.737Z,22.70
2022-12-04T01:41:15.203Z,20.40
2022-12-04T01:43:43.007Z,22.10
2022-12-04T01:46:11.297Z,21.90
2022-12-04T01:48:47.329Z,25.20
2022-12-04T01:51:23.442Z,24.73
2022-12-04T01:53:53.605Z,23.67
2022-12-04T01:56:23.106Z,24.27
2022-12-04T01:58:53.204Z,22.65
2022-12-04T02:01:21.268Z,21.23
2022-12-04T02:03:49.285Z,21.00
2022-12-04T02:06:16.809Z,21.95
2022-12-04T02:08:44.373Z,21.23
2022-12-04T02:11:30.538Z,21.00
2022-12-04T02:14:07.269Z,19.48
2022-12-04T02:16:42.303Z,22.55
2022-12-04T02:19:27.558Z,21.60
2022-12-04T02:21:56.534Z,19.75
2022-12-04T02:24:31.431Z,22.50
2022-12-04T02:26:58.979Z,22.58
2022-12-04T02:29:35.765Z,17.42
2022-12-04T02:32:07.671Z,18.48
2022-12-04T02:34:35.204Z,18.60
2022-12-04T02:37:13.805Z,18.92
2022-12-04T02:39:45.005Z,19.30
2022-12-04T02:42:45.045Z,21.52
2022-12-04T02:45:14.405Z,19.88
2022-12-04T02:47:43.535Z,21.50
2022-12-04T02:50:13.550Z,19.50
2022-12-04T02:52:44.709Z,23.70
2022-12-04T02:55:18.475Z,24.10
2022-12-04T02:57:48.885Z,22.58
2022-12-04T03:00:16.831Z,24.85
2022-12-04T03:02:53.295Z,26.95
2022-12-04T03:05:23.075Z,24.08
2022-12-04T03:07:55.500Z,24.40
2022-12-04T03:10:30.462Z,26.38
2022-12-04T03:13:04.557Z,26.30
2022-12-04T03:15:35.945Z,27.05
2022-12-04T03:18:26.865Z,22.83
2022-12-04T03:20:58.160Z,24.35
2022-12-04T03:23:49.096Z,22.67
2022-12-04T03:26:22.281Z,21.95
2022-12-04T03:29:08.697Z,22.13
2022-12-04T03:31:40.510Z,23.80
2022-12-04T03:36:38.328Z,19.90
2022-12-04T03:39:09.246Z,22.98
2022-12-04T03:41:50.100Z,21.20
2022-12-04T03:44:36.266Z,19.17
2022-12-04T03:47:06.993Z,20.65
2022-12-04T03:49:53.437Z,21.42
2022-12-04T03:52:35.708Z,20.73
2022-12-04T03:55:13.851Z,18.88
2022-12-04T03:57:43.243Z,21.45
2022-12-04T04:00:15.623Z,17.70
2022-12-04T04:03:06.135Z,17.65
2022-12-04T04:05:34.878Z,24.60
2022-12-04T04:08:22.378Z,18.80
2022-12-04T04:10:51.498Z,19.15
2022-12-04T04:13:39.887Z,20.08
2022-12-04T04:16:28.370Z,21.02
2022-12-04T04:19:15.756Z,18.08
2022-12-04T04:22:03.315Z,19.23
2022-12-04T04:24:38.263Z,19.67
2022-12-04T04:27:05.837Z,14.63
2022-12-04T04:29:33.585Z,18.50
2022-12-04T04:32:07.683Z,15.65
2022-12-04T04:34:35.283Z,19.15
2022-12-04T04:37:17.827Z,18.98
2022-12-04T04:39:55.494Z,18.88
2022-12-04T04:42:28.329Z,18.90
2022-12-04T04:45:12.095Z,20.75
2022-12-04T04:47:44.770Z,17.02
2022-12-04T04:50:12.932Z,18.25
2022-12-04T04:52:41.869Z,16.60
2022-12-04T04:55:09.967Z,18.00
2022-12-04T04:57:38.034Z,17.45
2022-12-04T05:00:07.718Z,17.25
2022-12-04T05:02:35.400Z,15.45
2022-12-04T05:05:03.051Z,17.58
2022-12-04T05:07:30.632Z,18.13
2022-12-04T05:09:58.604Z,19.00
2022-12-04T05:12:26.361Z,17.95
2022-12-04T05:14:53.885Z,20.00
2022-12-04T05:17:21.424Z,16.98
2022-12-04T05:19:56.353Z,15.73
2022-12-04T05:22:29.333Z,18.10
2022-12-04T05:24:56.902Z,19.55
2022-12-04T05:27:25.580Z,17.85
2022-12-04T05:29:54.468Z,17.35
2022-12-04T05:32:24.097Z,18.17
2022-12-04T05:34:52.902Z,16.92
2022-12-04T05:37:20.898Z,19.20
2022-12-04T05:39:48.491Z,19.63
2022-12-04T05:42:16.409Z,18.10
2022-12-04T05:44:43.992Z,19.67
2022-12-04T05:47:12.583Z,17.45
2022-12-04T05:49:40.115Z,20.75
2022-12-04T05:52:07.779Z,20.42
2022-12-04T05:54:35.402Z,19.00
2022-12-04T05:57:03.055Z,19.52
2022-12-04T05:59:30.626Z,20.75
2022-12-04T06:01:58.244Z,19.20
2022-12-04T06:04:25.921Z,19.05
2022-12-04T06:06:53.985Z,19.25
2022-12-04T06:09:21.590Z,18.23
2022-12-04T06:11:49.205Z,18.27
2022-12-04T06:14:17.230Z,19.27
2022-12-04T06:16:46.093Z,18.38
2022-12-04T06:19:15.407Z,20.20
2022-12-04T06:21:43.658Z,18.63
2022-12-04T06:24:14.429Z,18.00
2022-12-04T06:27:04.050Z,20.90
2022-12-04T06:29:29.814Z,21.30
2022-12-04T06:31:57.419Z,21.20
2022-12-04T06:34:25.045Z,18.83
2022-12-04T06:36:52.597Z,19.85
2022-12-04T06:39:20.183Z,18.88
2022-12-04T06:41:47.942Z,19.65
2022-12-04T06:44:16.240Z,19.13
2022-12-04T06:46:47.095Z,22.73
2022-12-04T06:49:14.990Z,14.40
2022-12-04T06:51:42.648Z,24.10
2022-12-04T06:54:10.718Z,21.63
2022-12-04T06:56:38.245Z,19.35
2022-12-04T06:59:06.075Z,23.05
2022-12-04T07:01:34.703Z,22.77
2022-12-04T07:04:04.114Z,21.00
2022-12-04T07:06:35.000Z,21.33
2022-12-04T07:09:05.256Z,22.35
2022-12-04T07:11:32.985Z,25.27
2022-12-04T07:14:00.576Z,26.05
2022-12-04T07:16:28.815Z,22.40
2022-12-04T07:18:57.264Z,25.63
2022-12-04T07:21:27.513Z,22.25
2022-12-04T07:23:56.265Z,24.55
2022-12-04T07:26:24.406Z,24.95
2022-12-04T07:28:52.088Z,34.20
2022-12-04T07:31:21.900Z,22.17
2022-12-04T07:33:50.004Z,23.38
2022-12-04T07:36:21.881Z,23.58
2022-12-04T07:38:49.507Z,29.98
2022-12-04T07:41:17.183Z,23.30
2022-12-04T07:43:45.111Z,22.10
2022-12-04T07:46:15.246Z,19.80
2022-12-04T07:48:43.138Z,18.30
2022-12-04T07:51:15.560Z,16.88
2022-12-04T07:53:43.528Z,19.35
2022-12-04T07:56:12.103Z,21.27
2022-12-04T07:58:40.144Z,20.13
2022-12-04T08:01:10.844Z,21.10
2022-12-04T08:03:43.526Z,19.67
2022-12-04T08:06:13.020Z,19.70
2022-12-04T08:08:40.566Z,22.50
2022-12-04T08:11:09.565Z,17.80
2022-12-04T08:13:37.196Z,19.02
2022-12-04T08:16:05.872Z,19.88
2022-12-04T08:18:33.563Z,22.92
2022-12-04T08:21:05.577Z,23.98
2022-12-04T08:23:33.203Z,20.58
2022-12-04T08:26:01.518Z,19.45
2022-12-04T08:28:29.328Z,22.38
2022-12-04T08:31:02.308Z,20.13
2022-12-04T08:33:30.051Z,19.90
2022-12-04T08:35:57.733Z,22.27
2022-12-04T08:38:25.287Z,20.17
2022-12-04T08:40:52.855Z,23.02
2022-12-04T08:43:20.508Z,21.77
2022-12-04T08:45:55.839Z,20.38
2022-12-04T08:48:23.456Z,24.35
2022-12-04T08:50:51.013Z,20.65
2022-12-04T08:53:19.056Z,22.63
2022-12-04T08:55:46.678Z,20.33
2022-12-04T08:58:14.282Z,22.30
2022-12-04T09:00:41.854Z,23.42
2022-12-04T09:03:10.216Z,16.83
2022-12-04T09:05:37.729Z,21.15
2022-12-04T09:08:05.395Z,17.83
2022-12-04T09:10:34.401Z,18.05
2022-12-04T09:13:02.048Z,17.25
2022-12-04T09:15:29.770Z,18.13
2022-12-04T09:17:57.359Z,15.05
2022-12-04T09:20:24.922Z,15.65
2022-12-04T09:23:03.938Z,14.38
2022-12-04T09:25:32.443Z,18.00
2022-12-04T09:28:00.062Z,18.23
2022-12-04T09:30:27.626Z,20.55
2022-12-04T09:32:55.204Z,16.55
2022-12-04T09:35:22.762Z,19.48
2022-12-04T09:37:50.343Z,14.88
2022-12-04T09:40:35.167Z,16.63
2022-12-04T09:43:10.887Z,19.48
2022-12-04T09:45:45.439Z,18.83
2022-12-04T09:48:13.419Z,19.17
2022-12-04T09:50:42.687Z,21.05
2022-12-04T09:53:22.409Z,19.50
2022-12-04T09:55:59.574Z,24.08
2022-12-04T09:58:35.947Z,22.15
2022-12-04T10:01:04.127Z,20.10
2022-12-04T10:03:32.239Z,23.70
2022-12-04T10:06:06.127Z,23.98
2022-12-04T10:08:37.011Z,27.00
2022-12-04T10:11:27.686Z,21.40
2022-12-04T10:14:10.633Z,20.80
2022-12-04T10:16:50.519Z,18.45
2022-12-04T10:19:26.923Z,23.05
2022-12-04T10:22:14.864Z,22.08
2022-12-04T10:25:08.763Z,20.60
2022-12-04T10:27:49.470Z,21.00
2022-12-04T10:30:17.358Z,21.98
2022-12-04T10:32:45.670Z,20.13
2022-12-04T10:35:20.915Z,22.58
2022-12-04T10:37:50.158Z,22.23
2022-12-04T10:40:22.874Z,20.80
2022-12-04T10:42:54.030Z,21.48
2022-12-04T10:45:22.784Z,19.77
2022-12-04T10:47:51.633Z,20.95
2022-12-04T10:50:20.741Z,22.10
2022-12-04T10:52:48.713Z,23.05
2022-12-04T10:55:16.289Z,23.83
2022-12-04T10:57:45.660Z,23.33
2022-12-04T11:00:32.155Z,20.13
2022-12-04T11:03:04.887Z,23.75
2022-12-04T11:05:35.694Z,23.73
2022-12-04T11:08:05.120Z,25.20
2022-12-04T11:10:37.640Z,25.17
2022-12-04T11:13:07.198Z,23.52
2022-12-04T11:15:43.920Z,23.15
2022-12-04T11:18:31.196Z,22.00
2022-12-04T11:21:01.644Z,26.52
2022-12-04T11:23:55.365Z,22.60
2022-12-04T11:26:43.229Z,23.58
2022-12-04T11:29:14.902Z,23.02
2022-12-04T11:34:15.218Z,25.10
2022-12-04T11:36:43.113Z,24.58
2022-12-04T11:39:13.774Z,23.20
2022-12-04T11:41:41.348Z,24.10
2022-12-04T11:44:41.463Z,24.95
2022-12-04T11:47:17.172Z,26.52
2022-12-04T11:49:44.917Z,23.15
2022-12-04T11:52:37.850Z,22.98
2022-12-04T11:55:21.276Z,24.73
2022-12-04T11:57:54.130Z,23.63
2022-12-04T12:00:23.571Z,22.92
2022-12-04T12:02:51.202Z,26.88
2022-12-04T12:05:37.588Z,22.70
2022-12-04T12:08:05.137Z,23.15
2022-12-04T12:10:44.241Z,24.80
2022-12-04T12:13:17.847Z,25.10
2022-12-04T12:16:03.875Z,27.30
2022-12-04T12:18:34.424Z,22.60
2022-12-04T12:21:02.011Z,24.13
2022-12-04T12:23:40.528Z,24.08
2022-12-04T12:26:12.732Z,22.92
2022-12-04T12:28:43.346Z,22.05
2022-12-04T12:31:29.387Z,24.38
2022-12-04T12:34:01.065Z,21.05
2022-12-04T12:36:30.604Z,20.27
2022-12-04T12:39:01.091Z,18.17
2022-12-04T12:41:32.227Z,18.73
2022-12-04T12:44:05.658Z,18.75
2022-12-04T12:46:48.879Z,22.65
2022-12-04T12:49:19.504Z,19.58
2022-12-04T12:52:01.928Z,21.85
2022-12-04T12:54:32.272Z,19.20
2022-12-04T12:57:15.606Z,20.75
2022-12-04T12:59:47.159Z,20.67
2022-12-04T13:02:23.356Z,21.27
2022-12-04T13:04:52.971Z,24.60
2022-12-04T13:07:32.880Z,24.55
2022-12-04T13:10:04.269Z,42.88
2022-12-04T13:12:36.078Z,28.00
2022-12-04T13:15:03.702Z,32.15
2022-12-04T13:17:34.571Z,25.67
2022-12-04T13:20:09.587Z,25.07
2022-12-04T13:22:38.526Z,20.08
2022-12-04T13:25:19.409Z,27.65
2022-12-04T13:28:06.473Z,22.88
2022-12-04T13:30:49.061Z,22.02
2022-12-04T13:33:16.575Z,19.02
2022-12-04T13:35:44.112Z,28.35
2022-12-04T13:38:27.228Z,23.05
2022-12-04T13:40:56.660Z,22.90
2022-12-04T13:43:36.550Z,20.70
2022-12-04T13:46:22.990Z,19.95
2022-12-04T13:48:50.706Z,20.60
2022-12-04T13:51:21.257Z,20.77
2022-12-04T13:53:49.627Z,21.85
2022-12-04T13:56:28.466Z,24.80
2022-12-04T13:59:19.046Z,39.83
2022-12-04T14:01:47.992Z,41.67
2022-12-04T14:04:33.934Z,22.17
2022-12-04T14:07:03.559Z,25.60
2022-12-04T14:09:39.410Z,24.48
2022-12-04T14:12:08.572Z,19.52
2022-12-04T14:14:52.057Z,20.13
2022-12-04T14:17:21.509Z,24.38
2022-12-04T14:19:52.891Z,26.23
2022-12-04T14:22:29.706Z,24.73
2022-12-04T14:25:23.196Z,26.45
2022-12-04T14:27:52.350Z,22.65
2022-12-04T14:30:20.028Z,23.52
2022-12-04T14:32:49.772Z,25.38
2022-12-04T14:35:22.969Z,22.20
2022-12-04T14:37:53.441Z,24.35
2022-12-04T14:40:28.998Z,23.38
2022-12-04T14:42:56.700Z,27.90
2022-12-04T14:45:43.110Z,23.63
2022-12-04T14:48:22.632Z,25.23
2022-12-04T14:50:59.115Z,25.33
2022-12-04T14:53:32.692Z,26.13
2022-12-04T14:56:04.645Z,29.35
2022-12-04T14:58:38.332Z,25.58
2022-12-04T15:01:29.513Z,27.25
2022-12-04T15:03:59.680Z,27.63
2022-12-04T15:06:31.022Z,29.23
2022-12-04T15:09:18.884Z,29.90
2022-12-04T15:12:07.550Z,30.55
2022-12-04T15:14:45.008Z,35.20
2022-12-04T15:17:13.362Z,31.85
2022-12-04T15:19:41.010Z,30.52
2022-12-04T15:22:11.829Z,33.72
2022-12-04T15:24:39.692Z,36.08
2022-12-04T15:27:07.682Z,36.03
2022-12-04T15:29:38.099Z,38.22
2022-12-04T15:32:09.158Z,33.92
2022-12-04T15:34:43.723Z,36.45
2022-12-04T15:37:22.686Z,36.88
2022-12-04T15:39:52.462Z,38.80
2022-12-04T15:42:26.108Z,37.40
2022-12-04T15:45:08.694Z,43.40
2022-12-04T15:47:42.233Z,39.10
2022-12-04T15:50:09.870Z,46.92
2022-12-04T15:52:38.010Z,38.13
2022-12-04T15:55:09.851Z,45.95
2022-12-04T16:00:23.666Z,34.45
2022-12-04T16:02:51.735Z,35.25
2022-12-04T16:05:22.105Z,38.20
2022-12-04T16:07:53.905Z,34.95
2022-12-04T16:12:56.245Z,31.67
2022-12-04T16:15:24.917Z,29.02
2022-12-04T16:17:52.788Z,30.40
2022-12-04T16:20:20.901Z,31.05
2022-12-04T16:22:50.100Z,31.15
2022-12-04T16:25:17.944Z,32.78
2022-12-04T16:27:45.487Z,31.30
2022-12-04T16:30:14.481Z,32.58
2022-12-04T16:32:42.111Z,27.25
2022-12-04T16:35:14.738Z,31.55
2022-12-04T16:37:42.308Z,29.90
2022-12-04T16:40:10.561Z,32.95
2022-12-04T16:42:39.929Z,35.38
2022-12-04T16:45:26.404Z,29.30
2022-12-04T16:47:54.049Z,31.02
2022-12-04T16:50:21.630Z,34.53
2022-12-04T16:52:49.434Z,38.55
2022-12-04T16:55:19.341Z,35.42
2022-12-04T16:57:47.575Z,35.60
2022-12-04T17:00:16.039Z,34.60
2022-12-04T17:02:45.191Z,31.95
2022-12-04T17:05:20.400Z,31.80
2022-12-04T17:07:48.088Z,30.15
2022-12-04T17:10:21.790Z,35.88
2022-12-04T17:12:52.922Z,32.38
2022-12-04T17:15:20.481Z,30.45
2022-12-04T17:17:48.116Z,30.17
2022-12-04T17:20:16.950Z,33.33
2022-12-04T17:22:44.549Z,32.20
2022-12-04T17:25:12.576Z,29.85
2022-12-04T17:27:40.383Z,27.95
2022-12-04T17:30:08.461Z,31.98
2022-12-04T17:32:36.386Z,29.48
2022-12-04T17:35:04.705Z,29.27
2022-12-04T17:37:33.090Z,31.00
2022-12-04T17:40:00.634Z,34.08
2022-12-04T17:42:28.520Z,31.52
2022-12-04T17:44:57.945Z,31.35
2022-12-04T17:47:25.769Z,32.42
2022-12-04T17:49:53.376Z,35.53
2022-12-04T17:52:22.460Z,37.40
2022-12-04T17:54:50.624Z,30.73
2022-12-04T17:57:19.280Z,34.63
2022-12-04T17:59:46.845Z,33.65
2022-12-04T18:02:14.929Z,33.78
2022-12-04T18:04:42.905Z,30.75
2022-12-04T18:07:10.508Z,32.25
2022-12-04T18:09:38.048Z,29.98
2022-12-04T18:12:05.712Z,31.65
2022-12-04T18:14:35.082Z,34.28
2022-12-04T18:17:02.723Z,28.45
2022-12-04T18:19:30.701Z,27.58
2022-12-04T18:21:58.443Z,26.05
2022-12-04T18:24:26.839Z,23.50
2022-12-04T18:26:54.631Z,23.75
2022-12-04T18:29:24.842Z,25.05
2022-12-04T18:31:52.684Z,21.80
2022-12-04T18:34:20.780Z,26.17
2022-12-04T18:36:48.926Z,27.38
2022-12-04T18:39:24.026Z,24.80
2022-12-04T18:41:54.918Z,25.48
2022-12-04T18:44:22.565Z,28.93
2022-12-04T18:46:50.228Z,26.58
2022-12-04T18:49:17.788Z,26.05
2022-12-04T18:51:49.691Z,28.23
2022-12-04T18:54:20.032Z,27.63
2022-12-04T18:56:47.714Z,27.77
2022-12-04T18:59:16.952Z,26.08
2022-12-04T19:01:44.886Z,33.63
2022-12-04T19:04:13.711Z,26.55
2022-12-04T19:06:42.422Z,30.92
2022-12-04T19:09:12.122Z,29.83
2022-12-04T19:11:40.101Z,28.08
2022-12-04T19:14:16.094Z,28.92
2022-12-04T19:16:48.639Z,29.13
2022-12-04T19:19:19.459Z,28.90
2022-12-04T19:21:47.084Z,26.92
2022-12-04T19:24:14.642Z,28.45
2022-12-04T19:26:42.862Z,28.65
2022-12-04T19:29:13.760Z,30.77
2022-12-04T19:31:41.668Z,27.70
2022-12-04T19:34:09.275Z,31.52
2022-12-04T19:36:36.949Z,30.05
2022-12-04T19:39:06.915Z,27.77
2022-12-04T19:41:35.209Z,28.75
2022-12-04T19:44:14.593Z,29.58
2022-12-04T19:46:50.416Z,28.50
2022-12-04T19:49:17.953Z,25.58
2022-12-04T19:51:46.624Z,26.95
2022-12-04T19:54:15.055Z,25.52
2022-12-04T19:56:45.921Z,23.73
2022-12-04T19:59:13.526Z,22.53
2022-12-04T20:01:41.164Z,23.33
2022-12-04T20:04:09.277Z,21.58
2022-12-04T20:06:38.374Z,23.58
2022-12-04T20:09:07.461Z,21.83
2022-12-04T20:11:35.225Z,23.60
2022-12-04T20:14:03.324Z,21.45
2022-12-04T20:16:31.515Z,20.70
2022-12-04T20:18:59.249Z,18.67
2022-12-04T20:21:32.324Z,20.83
2022-12-04T20:24:01.793Z,20.90
2022-12-04T20:26:30.885Z,21.38
2022-12-04T20:28:59.128Z,21.20
2022-12-04T20:31:40.257Z,20.65
2022-12-04T20:34:12.842Z,18.02
2022-12-04T20:36:41.779Z,19.50
2022-12-04T20:39:10.041Z,18.23
2022-12-04T20:41:38.167Z,19.00
2022-12-04T20:44:07.016Z,19.02
2022-12-04T20:46:36.112Z,18.10
2022-12-04T20:49:05.695Z,15.63
2022-12-04T20:51:34.546Z,17.67
2022-12-04T20:54:02.626Z,16.45
2022-12-04T20:56:31.829Z,18.08
2022-12-04T20:59:00.710Z,22.58
2022-12-04T21:01:28.826Z,20.10
2022-12-04T21:03:56.863Z,21.48
2022-12-04T21:06:34.494Z,20.63
2022-12-04T21:09:05.811Z,18.20
2022-12-04T21:11:33.502Z,20.15
2022-12-04T21:14:20.168Z,18.67
2022-12-04T21:16:48.546Z,21.23
2022-12-04T21:19:17.376Z,18.45
2022-12-04T21:21:45.185Z,17.83
2022-12-04T21:24:14.225Z,17.05
2022-12-04T21:26:41.844Z,21.20
2022-12-04T21:29:09.624Z,17.15
2022-12-04T21:31:37.828Z,19.27
2022-12-04T21:34:06.603Z,18.95
2022-12-04T21:36:34.306Z,18.38
2022-12-04T21:39:01.987Z,18.23
2022-12-04T21:41:48.194Z,19.63
2022-12-04T21:44:17.575Z,18.50
2022-12-04T21:46:46.092Z,16.45
2022-12-04T21:49:14.125Z,18.00
2022-12-04T21:51:57.280Z,20.17
2022-12-04T21:54:25.686Z,19.35
2022-12-04T21:56:53.247Z,19.33
2022-12-04T21:59:20.817Z,18.42
2022-12-04T22:01:48.566Z,16.55
2022-12-04T22:04:16.244Z,16.75
2022-12-04T22:06:43.973Z,19.15
2022-12-04T22:09:12.482Z,22.17
2022-12-04T22:11:41.431Z,20.05
2022-12-04T22:14:09.491Z,20.23
2022-12-04T22:16:42.000Z,20.30
2022-12-04T22:19:10.465Z,19.17
2022-12-04T22:21:38.085Z,18.70
2022-12-04T22:24:05.895Z,18.05
2022-12-04T22:26:33.992Z,19.52
2022-12-04T22:29:03.159Z,18.55
2022-12-04T22:31:32.784Z,21.52
2022-12-04T22:34:01.356Z,17.95
2022-12-04T22:36:30.384Z,18.25
2022-12-04T22:39:09.215Z,20.20
2022-12-04T22:41:37.997Z,18.83
2022-12-04T22:44:06.143Z,18.98
2022-12-04T22:46:33.910Z,18.75
2022-12-04T22:49:01.578Z,21.02
2022-12-04T22:51:29.402Z,19.52
2022-12-04T22:53:58.751Z,21.65
2022-12-04T22:56:31.043Z,19.40
2022-12-04T22:58:59.122Z,21.27
2022-12-04T23:01:27.883Z,17.65
2022-12-04T23:03:55.925Z,18.83
2022-12-04T23:06:24.573Z,20.98
2022-12-04T23:09:00.991Z,19.30
2022-12-04T23:11:28.914Z,19.88
2022-12-04T23:13:59.922Z,17.58
2022-12-04T23:16:28.099Z,17.23
2022-12-04T23:18:56.017Z,19.27
2022-12-04T23:21:24.249Z,17.52
2022-12-04T23:23:52.351Z,17.67
2022-12-04T23:26:24.755Z,16.25
2022-12-04T23:28:52.318Z,19.90
2022-12-04T23:31:20.197Z,17.63
2022-12-04T23:33:47.773Z,20.13
2022-12-04T23:36:15.804Z,21.00
2022-12-04T23:38:44.244Z,19.35
2022-12-04T23:41:13.086Z,15.43
2022-12-04T23:43:41.048Z,19.50
2022-12-04T23:46:11.224Z,18.92
2022-12-04T23:48:39.763Z,20.73
2022-12-04T23:51:07.859Z,18.75
2022-12-04T23:53:35.839Z,18.63
2022-12-04T23:56:07.340Z,18.35
2022-12-04T23:58:35.567Z,19.25
